Time;durP1;ratioP1;P1;durP2;ratioP2;P2;SDS_P1;SDS_P2;PMS_P1;PMS_P2;Temp;Humidity;BMP_temperature;BMP_pressure;BME280_temperature;BME280_humidity;BME280_pressure;Samples;Min_cycle;Max_cycle;Signal;HPM_P1;HPM_P2
2021/09/26 00:01:51;;;;;;;7.70;5.13;;;15.80;99.90;;;;;;5001785;28;20026;-92
2021/09/26 00:04:17;;;;;;;5.78;5.13;;;15.70;99.90;;;;;;5018755;28;20019;-94
2021/09/26 00:06:43;;;;;;;4.40;3.88;;;15.70;99.90;;;;;;5022392;23;20066;-96
2021/09/26 00:09:09;;;;;;;6.20;4.78;;;15.70;99.90;;;;;;4999125;28;20034;-96
2021/09/26 00:11:35;;;;;;;5.53;4.35;;;15.70;99.90;;;;;;4997933;28;20061;-96
2021/09/26 00:14:01;;;;;;;5.63;4.43;;;15.70;99.90;;;;;;4998660;28;20035;-96
2021/09/26 00:16:30;;;;;;;5.88;4.63;;;15.70;99.90;;;;;;4999205;28;20038;-95
2021/09/26 00:18:56;;;;;;;6.47;4.72;;;15.70;99.90;;;;;;4997898;28;20045;-96
2021/09/26 00:21:21;;;;;;;6.60;4.47;;;15.80;99.90;;;;;;5015185;28;20022;-96
2021/09/26 00:23:49;;;;;;;7.13;4.63;;;15.70;99.90;;;;;;4998736;28;20021;-95
2021/09/26 00:26:15;;;;;;;7.80;5.28;;;15.70;99.90;;;;;;4999504;28;20123;-95
2021/09/26 00:28:41;;;;;;;6.50;4.55;;;15.70;99.90;;;;;;4997349;28;20081;-96
2021/09/26 00:31:07;;;;;;;5.47;4.20;;;15.70;99.90;;;;;;4998008;28;20038;-95
2021/09/26 00:33:33;;;;;;;6.32;5.00;;;15.70;99.90;;;;;;4997754;28;20039;-96
2021/09/26 00:35:59;;;;;;;6.53;5.28;;;15.70;99.90;;;;;;4996370;28;20110;-96
2021/09/26 00:38:25;;;;;;;7.00;5.72;;;15.70;99.90;;;;;;4999949;28;20073;-96
2021/09/26 00:40:52;;;;;;;6.32;5.15;;;15.70;99.90;;;;;;4999828;28;20019;-96
2021/09/26 00:43:18;;;;;;;9.85;5.60;;;15.70;99.90;;;;;;5000189;28;20111;-96
2021/09/26 00:45:47;;;;;;;6.18;4.63;;;15.70;99.90;;;;;;5000542;28;20034;-96
2021/09/26 00:48:13;;;;;;;7.28;5.20;;;15.70;99.90;;;;;;5000054;28;20038;-96
2021/09/26 00:50:44;;;;;;;7.18;5.63;;;15.70;99.90;;;;;;5016711;28;20030;-96
2021/09/26 00:53:18;;;;;;;6.40;4.70;;;15.70;99.90;;;;;;5001548;28;20050;-96
2021/09/26 00:55:46;;;;;;;6.63;4.15;;;15.70;99.90;;;;;;5034972;23;20065;-96
2021/09/26 00:58:14;;;;;;;5.72;5.13;;;15.60;99.90;;;;;;5000074;28;20026;-96
2021/09/26 01:00:40;;;;;;;6.55;4.72;;;15.60;99.90;;;;;;5238367;23;20061;-96
2021/09/26 01:03:07;;;;;;;5.80;4.00;;;15.60;99.90;;;;;;4982441;28;20026;-96
2021/09/26 01:05:33;;;;;;;6.82;4.95;;;15.60;99.90;;;;;;4999737;28;20090;-96
2021/09/26 01:08:31;;;;;;;6.75;4.68;;;15.60;99.90;;;;;;4983631;28;20015;-96
2021/09/26 01:11:00;;;;;;;5.85;4.10;;;15.60;99.90;;;;;;4988063;23;20042;-93
2021/09/26 01:13:43;;;;;;;7.28;4.90;;;15.60;99.90;;;;;;5004786;28;20046;-93
2021/09/26 01:16:31;;;;;;;7.20;4.90;;;15.60;99.90;;;;;;5074434;23;20105;-93
2021/09/26 01:19:19;;;;;;;9.02;5.50;;;15.60;99.90;;;;;;5003905;28;20292;-95
2021/09/26 01:21:59;;;;;;;6.40;4.45;;;15.50;99.90;;;;;;5018661;28;20059;-96
2021/09/26 01:24:53;;;;;;;5.43;4.70;;;15.60;99.90;;;;;;5018664;28;20030;-96
2021/09/26 01:27:47;;;;;;;5.80;4.35;;;15.50;99.90;;;;;;5019186;28;20067;-96
2021/09/26 01:30:47;;;;;;;6.28;4.65;;;15.50;99.90;;;;;;5019193;28;20082;-95
2021/09/26 01:33:31;;;;;;;5.53;4.45;;;15.50;99.90;;;;;;5016273;28;20094;-96
2021/09/26 01:36:46;;;;;;;5.75;4.57;;;15.50;99.90;;;;;;5002259;28;20065;-96
2021/09/26 01:39:15;;;;;;;;;;;15.50;99.90;;;;;;4999844;28;20030;-96
2021/09/26 01:42:03;;;;;;;5.05;4.18;;;15.50;99.90;;;;;;5003358;28;19920;-96
2021/09/26 01:45:15;;;;;;;4.78;4.03;;;15.50;99.90;;;;;;5020321;28;20014;-95
2021/09/26 01:47:52;;;;;;;6.47;4.47;;;15.50;99.90;;;;;;4941638;29;20024;-96
2021/09/26 01:50:23;;;;;;;6.47;4.47;;;15.40;99.90;;;;;;4941011;29;20040;-94
2021/09/26 01:52:53;;;;;;;6.13;4.65;;;15.40;99.90;;;;;;4979514;28;20034;-96
2021/09/26 01:55:24;;;;;;;4.68;4.00;;;15.40;99.90;;;;;;5192484;23;20034;-96
2021/09/26 01:57:52;;;;;;;5.75;4.40;;;15.40;99.90;;;;;;5003034;28;20102;-96
2021/09/26 02:00:18;;;;;;;4.88;4.35;;;15.40;99.90;;;;;;5003126;28;20082;-96
2021/09/26 02:02:49;;;;;;;7.05;4.40;;;15.40;99.90;;;;;;5002128;28;20033;-96
2021/09/26 02:05:18;;;;;;;5.10;4.03;;;15.40;99.90;;;;;;5019880;28;20038;-96
2021/09/26 02:07:46;;;;;;;6.78;4.43;;;15.40;99.90;;;;;;5002940;28;20045;-96
2021/09/26 02:10:17;;;;;;;6.22;4.43;;;15.40;99.90;;;;;;5144207;23;20062;-95
2021/09/26 02:12:43;;;;;;;4.97;3.85;;;15.40;99.90;;;;;;5001572;28;20022;-96
2021/09/26 02:15:19;;;;;;;5.40;4.03;;;15.40;99.90;;;;;;5019461;28;20586;-94
2021/09/26 02:17:46;;;;;;;5.43;3.90;;;15.40;99.90;;;;;;5018995;28;20037;-96
2021/09/26 02:20:16;;;;;;;4.05;3.65;;;15.40;99.90;;;;;;4984946;28;20022;-96
2021/09/26 02:22:47;;;;;;;4.97;3.92;;;15.30;99.90;;;;;;5003382;28;20019;-93
2021/09/26 02:25:14;;;;;;;5.30;3.90;;;15.30;99.90;;;;;;5038998;23;20046;-94
2021/09/26 02:27:43;;;;;;;6.40;4.25;;;15.30;99.90;;;;;;5217352;23;20375;-91
2021/09/26 02:30:10;;;;;;;4.40;3.80;;;15.30;99.90;;;;;;5001853;28;20114;-96
2021/09/26 02:32:36;;;;;;;4.50;3.75;;;15.30;99.90;;;;;;5002741;28;20021;-96
2021/09/26 02:35:03;;;;;;;4.38;3.90;;;15.30;99.90;;;;;;5019186;28;20039;-96
2021/09/26 02:37:29;;;;;;;6.30;3.70;;;15.30;99.90;;;;;;5018583;28;20078;-96
2021/09/26 02:40:07;;;;;;;9.82;3.72;;;15.30;99.90;;;;;;5011074;28;20042;-95
2021/09/26 02:42:56;;;;;;;4.35;3.50;;;15.30;99.90;;;;;;5015258;28;20093;-96
2021/09/26 02:45:37;;;;;;;5.43;4.30;;;15.20;99.90;;;;;;4998643;28;20030;-96
2021/09/26 02:48:12;;;;;;;6.00;3.47;;;15.20;99.90;;;;;;5016873;28;20061;-96
2021/09/26 02:50:40;;;;;;;4.13;3.55;;;15.20;99.90;;;;;;5000344;28;20038;-95
2021/09/26 02:53:07;;;;;;;5.82;4.25;;;15.20;99.90;;;;;;4999360;28;20100;-95
2021/09/26 02:55:34;;;;;;;4.68;3.78;;;15.20;99.90;;;;;;4999926;28;20045;-96
2021/09/26 02:58:01;;;;;;;5.82;4.00;;;15.20;99.90;;;;;;5016144;28;20045;-96
2021/09/26 03:00:33;;;;;;;5.25;3.30;;;15.10;99.90;;;;;;5017218;28;20053;-95
2021/09/26 03:03:16;;;;;;;5.00;4.22;;;15.10;99.90;;;;;;4999834;28;20030;-96
2021/09/26 03:05:43;;;;;;;4.78;3.33;;;15.10;99.90;;;;;;5000830;28;20041;-96
2021/09/26 03:08:10;;;;;;;4.72;3.28;;;15.00;99.90;;;;;;5000119;28;20018;-96
2021/09/26 03:10:39;;;;;;;5.10;3.72;;;15.00;99.90;;;;;;5015685;28;20049;-95
2021/09/26 03:13:08;;;;;;;4.55;3.97;;;15.00;99.90;;;;;;5016726;28;20034;-96
2021/09/26 03:15:34;;;;;;;4.00;3.33;;;14.90;99.90;;;;;;5001635;28;20041;-93
2021/09/26 03:18:00;;;;;;;4.63;3.60;;;14.90;99.90;;;;;;5017994;28;20101;-96
2021/09/26 03:20:26;;;;;;;4.85;3.95;;;14.90;99.90;;;;;;5001829;28;20026;-96
2021/09/26 03:22:57;;;;;;;3.72;3.33;;;14.90;99.90;;;;;;5001631;28;20050;-96
2021/09/26 03:25:23;;;;;;;3.85;3.45;;;14.80;99.90;;;;;;5018360;28;20054;-96
2021/09/26 03:27:49;;;;;;;4.20;3.40;;;14.80;99.90;;;;;;5109504;23;20042;-96
2021/09/26 03:30:22;;;;;;;5.55;4.03;;;14.80;99.90;;;;;;5000168;28;20069;-93
2021/09/26 03:32:48;;;;;;;5.88;3.60;;;14.80;99.90;;;;;;5000436;28;20030;-96
2021/09/26 03:35:17;;;;;;;4.43;3.40;;;14.70;99.90;;;;;;5107342;23;20043;-92
2021/09/26 03:40:16;;;;;;;7.82;3.45;;;14.70;99.90;;;;;;5236914;23;20273;-93
2021/09/26 03:43:07;;;;;;;4.45;3.95;;;14.60;99.90;;;;;;3690939;23;20312;-89
2021/09/26 03:45:33;;;;;;;5.13;3.75;;;14.60;99.90;;;;;;4980428;28;20055;-96
2021/09/26 03:47:59;;;;;;;5.40;4.00;;;14.60;99.90;;;;;;4980891;28;20034;-96
2021/09/26 03:50:25;;;;;;;4.47;3.70;;;14.50;99.90;;;;;;4980516;28;20065;-95
2021/09/26 03:52:51;;;;;;;4.13;3.50;;;14.50;99.90;;;;;;4979757;28;20038;-96
2021/09/26 03:55:18;;;;;;;5.22;3.75;;;14.60;99.90;;;;;;4998086;28;20035;-95
2021/09/26 03:57:44;;;;;;;6.30;3.67;;;14.50;99.90;;;;;;4980772;28;20126;-96
2021/09/26 04:00:14;;;;;;;5.75;3.50;;;14.50;99.90;;;;;;4997150;28;20042;-95
2021/09/26 04:02:40;;;;;;;3.97;3.53;;;14.50;99.90;;;;;;4978359;28;20108;-96
2021/09/26 04:05:09;;;;;;;6.07;3.25;;;14.50;99.90;;;;;;4978279;28;20098;-96
2021/09/26 04:07:35;;;;;;;4.30;3.55;;;14.50;99.90;;;;;;4978301;28;20117;-95
2021/09/26 04:10:03;;;;;;;4.05;3.50;;;14.50;99.90;;;;;;4978888;28;20026;-96
2021/09/26 04:12:30;;;;;;;2.88;2.60;;;14.50;99.90;;;;;;4978778;28;20126;-95
2021/09/26 04:14:59;;;;;;;3.75;3.30;;;14.50;99.90;;;;;;4996245;28;20054;-96
2021/09/26 04:17:27;;;;;;;4.88;3.42;;;14.50;99.90;;;;;;4980237;28;20035;-96
2021/09/26 04:19:53;;;;;;;4.10;3.67;;;14.50;99.90;;;;;;4979869;28;20046;-96
2021/09/26 04:22:18;;;;;;;4.25;3.33;;;14.50;99.90;;;;;;4979834;28;20031;-95
2021/09/26 04:24:45;;;;;;;5.32;3.80;;;14.50;99.90;;;;;;4979172;28;20035;-96
2021/09/26 04:27:11;;;;;;;5.00;3.42;;;14.50;99.90;;;;;;4979502;28;20014;-96
2021/09/26 04:29:37;;;;;;;5.13;3.30;;;14.50;99.90;;;;;;5015835;23;20114;-96
2021/09/26 04:32:03;;;;;;;5.40;3.85;;;14.50;99.90;;;;;;4999506;28;20088;-96
2021/09/26 04:34:29;;;;;;;5.15;3.88;;;14.50;99.90;;;;;;4999281;28;20061;-96
2021/09/26 04:36:58;;;;;;;5.38;3.83;;;14.50;99.90;;;;;;5002568;28;20019;-96
2021/09/26 04:39:23;;;;;;;4.18;3.55;;;14.50;99.90;;;;;;5002892;28;20071;-94
2021/09/26 04:41:49;;;;;;;5.07;4.10;;;14.60;99.90;;;;;;5002676;28;20039;-96
2021/09/26 04:44:16;;;;;;;4.43;3.58;;;14.60;99.90;;;;;;5002987;28;20028;-96
2021/09/26 04:56:55;;;;;;;3.88;3.28;;;14.80;99.90;;;;;;5006772;23;20069;-96
2021/09/26 04:59:21;;;;;;;5.43;3.35;;;14.80;99.90;;;;;;4984686;28;20037;-96
2021/09/26 05:01:48;;;;;;;4.78;3.50;;;14.90;99.90;;;;;;4984763;28;20050;-95
2021/09/26 05:04:14;;;;;;;5.15;3.10;;;14.90;99.90;;;;;;5001313;28;20030;-96
2021/09/26 05:06:40;;;;;;;4.72;3.60;;;15.00;99.90;;;;;;4983532;28;20031;-96
2021/09/26 05:09:06;;;;;;;6.07;3.42;;;15.00;99.90;;;;;;5000557;28;20030;-96
2021/09/26 05:11:32;;;;;;;5.28;3.33;;;15.00;99.90;;;;;;5000691;28;20098;-96
2021/09/26 05:14:01;;;;;;;6.82;3.25;;;15.00;99.90;;;;;;5000124;28;20018;-96
2021/09/26 05:16:27;;;;;;;5.20;3.70;;;15.10;99.90;;;;;;5095755;23;20103;-96
2021/09/26 05:18:52;;;;;;;4.95;3.83;;;15.20;99.90;;;;;;5003173;28;20047;-96
2021/09/26 05:21:19;;;;;;;8.88;3.97;;;15.30;99.90;;;;;;5003470;28;20047;-95
2021/09/26 05:23:44;;;;;;;3.63;3.17;;;15.40;99.90;;;;;;5003261;28;20025;-96
2021/09/26 05:26:10;;;;;;;4.70;3.40;;;15.40;99.90;;;;;;4983671;28;20022;-96
2021/09/26 05:28:39;;;;;;;7.63;3.80;;;15.50;99.90;;;;;;4983284;28;20043;-96
2021/09/26 05:31:05;;;;;;;6.63;3.88;;;15.70;99.90;;;;;;4983211;28;20051;-96
2021/09/26 05:33:31;;;;;;;4.20;3.42;;;15.70;99.90;;;;;;4983323;28;20034;-96
2021/09/26 05:35:58;;;;;;;5.60;3.33;;;15.80;99.90;;;;;;5000308;28;20038;-96
2021/09/26 05:38:25;;;;;;;4.03;3.50;;;15.90;99.90;;;;;;4999312;28;20039;-96
2021/09/26 05:40:51;;;;;;;4.53;3.70;;;16.00;99.90;;;;;;4982878;28;20011;-96
2021/09/26 05:43:17;;;;;;;9.63;3.97;;;16.00;99.90;;;;;;4982173;28;20078;-96
2021/09/26 05:45:43;;;;;;;6.30;4.47;;;16.10;99.90;;;;;;4979419;28;20051;-96
2021/09/26 05:48:09;;;;;;;4.03;3.58;;;16.20;99.90;;;;;;4980337;28;20038;-95
2021/09/26 05:50:35;;;;;;;7.72;4.07;;;16.20;99.90;;;;;;4997204;28;20054;-96
2021/09/26 05:53:04;;;;;;;6.90;4.68;;;16.30;99.90;;;;;;4980500;28;20058;-96
2021/09/26 05:55:41;;;;;;;6.18;5.32;;;16.30;99.50;;;;;;4965947;28;20046;-96
2021/09/26 06:16:21;;;;;;;6.75;5.18;;;16.60;96.90;;;;;;5116679;23;20055;-95
2021/09/26 06:18:53;;;;;;;6.07;5.30;;;16.60;96.60;;;;;;4999145;28;20075;-94
2021/09/26 06:21:30;;;;;;;6.65;5.25;;;16.50;96.90;;;;;;5154331;23;20058;-93
2021/09/26 06:23:58;;;;;;;6.82;4.88;;;16.50;96.90;;;;;;5128276;23;20247;-92
2021/09/26 06:26:25;;;;;;;6.03;5.10;;;16.50;96.70;;;;;;5004031;28;20031;-95
2021/09/26 06:31:53;;;;;;;8.73;5.50;;;16.60;96.20;;;;;;5025974;26;20058;-94
2021/09/26 06:34:20;;;;;;;6.18;5.20;;;16.60;96.20;;;;;;5186880;23;20080;-95
2021/09/26 06:36:58;;;;;;;8.50;5.78;;;16.60;96.20;;;;;;5006767;28;20034;-96
2021/09/26 06:39:34;;;;;;;5.22;4.72;;;16.70;95.60;;;;;;5007995;28;20062;-94
2021/09/26 06:42:00;;;;;;;6.18;5.32;;;16.80;95.20;;;;;;5008876;28;20041;-94
2021/09/26 06:44:38;;;;;;;5.65;4.57;;;16.80;94.60;;;;;;5011184;28;20006;-96
2021/09/26 06:47:08;;;;;;;7.63;5.32;;;16.80;94.60;;;;;;5007103;28;20216;-93
2021/09/26 06:49:39;;;;;;;6.68;4.78;;;16.90;94.20;;;;;;5024896;28;20039;-95
2021/09/26 06:52:07;;;;;;;6.43;4.85;;;17.00;94.00;;;;;;5020447;28;20058;-94
2021/09/26 06:54:33;;;;;;;13.60;5.38;;;17.10;93.30;;;;;;5009822;28;20049;-93
2021/09/26 06:57:11;;;;;;;4.60;3.90;;;17.10;91.80;;;;;;5009855;28;20038;-95
2021/09/26 06:59:39;;;;;;;9.70;3.97;;;17.10;91.70;;;;;;5010586;28;20042;-95
2021/09/26 07:02:08;;;;;;;7.72;3.90;;;17.10;91.70;;;;;;5005517;28;20136;-95
2021/09/26 07:04:58;;;;;;;5.95;4.00;;;17.20;91.80;;;;;;5006669;28;20045;-96
2021/09/26 07:07:32;;;;;;;5.90;3.80;;;17.20;91.30;;;;;;5023702;28;20038;-93
2021/09/26 07:10:00;;;;;;;6.47;4.30;;;17.30;91.50;;;;;;5007438;28;20038;-95
2021/09/26 07:12:26;;;;;;;6.28;4.05;;;17.30;91.30;;;;;;5003779;28;20041;-94
2021/09/26 07:14:55;;;;;;;7.70;4.25;;;17.30;90.80;;;;;;5043683;23;20520;-96
2021/09/26 07:17:21;;;;;;;7.15;3.95;;;17.30;90.30;;;;;;5023194;28;20070;-96
2021/09/26 07:19:50;;;;;;;6.93;3.83;;;17.20;89.50;;;;;;5003867;28;20054;-96
2021/09/26 07:22:19;;;;;;;6.35;4.38;;;17.20;89.60;;;;;;5071021;23;20054;-94
2021/09/26 07:24:45;;;;;;;6.10;4.07;;;17.10;89.90;;;;;;4995901;28;20115;-95
2021/09/26 07:27:55;;;;;;;5.78;3.75;;;17.10;89.20;;;;;;4988176;28;20030;-95
2021/09/26 07:30:51;;;;;;;7.25;3.10;;;17.00;88.60;;;;;;4900440;29;20075;-96
2021/09/26 07:33:38;;;;;;;5.75;3.53;;;17.00;90.10;;;;;;4924107;29;20059;-96
2021/09/26 07:36:25;;;;;;;7.97;3.83;;;17.00;88.60;;;;;;4967536;28;20114;-96
2021/09/26 07:38:50;;;;;;;7.32;3.88;;;17.10;89.00;;;;;;5000398;28;20054;-95
2021/09/26 07:41:16;;;;;;;6.15;3.83;;;17.10;88.60;;;;;;4978285;28;20046;-95
2021/09/26 07:43:44;;;;;;;4.68;3.13;;;17.00;87.80;;;;;;4982575;28;20081;-96
2021/09/26 07:46:10;;;;;;;8.27;3.60;;;17.00;88.20;;;;;;4981560;28;20078;-95
2021/09/26 07:48:39;;;;;;;5.40;3.65;;;17.00;87.40;;;;;;4963597;28;20043;-94
2021/09/26 07:51:07;;;;;;;5.95;3.60;;;17.00;87.00;;;;;;4961123;28;20059;-95
2021/09/26 07:53:34;;;;;;;5.80;3.58;;;17.00;86.20;;;;;;4957923;29;20043;-95
2021/09/26 07:56:00;;;;;;;5.00;3.25;;;17.00;86.20;;;;;;4976019;28;20035;-96
2021/09/26 07:58:27;;;;;;;3.95;3.38;;;17.00;86.20;;;;;;4962265;29;20039;-96
2021/09/26 08:00:54;;;;;;;6.55;3.53;;;17.10;87.20;;;;;;4962412;29;20035;-96
2021/09/26 08:03:25;;;;;;;7.00;3.47;;;17.20;86.90;;;;;;4966468;29;20028;-96
2021/09/26 08:05:51;;;;;;;4.90;3.30;;;17.30;86.40;;;;;;4968704;28;20043;-95
2021/09/26 08:08:17;;;;;;;6.00;3.53;;;17.30;85.90;;;;;;4966634;28;20035;-95
2021/09/26 08:10:43;;;;;;;6.32;3.25;;;17.40;84.60;;;;;;4984680;28;20039;-96
2021/09/26 08:13:09;;;;;;;7.32;3.47;;;17.40;84.30;;;;;;4988274;28;20035;-96
2021/09/26 08:15:37;;;;;;;6.75;4.03;;;17.30;84.00;;;;;;4983986;28;20030;-96
2021/09/26 08:18:05;;;;;;;5.03;3.40;;;17.20;84.00;;;;;;4987170;28;20038;-96
2021/09/26 08:20:32;;;;;;;5.30;3.38;;;17.20;82.80;;;;;;4991310;28;20077;-95
2021/09/26 08:23:04;;;;;;;8.15;3.55;;;17.20;81.80;;;;;;4997362;28;20055;-92
2021/09/26 08:25:30;;;;;;;5.88;3.28;;;17.20;81.90;;;;;;4976526;28;20035;-96
2021/09/26 08:27:56;;;;;;;6.53;3.17;;;17.20;79.70;;;;;;4991023;28;20156;-96
2021/09/26 08:30:22;;;;;;;5.13;3.05;;;17.20;80.10;;;;;;4993860;28;20115;-95
2021/09/26 08:33:06;;;;;;;6.28;4.13;;;17.30;80.40;;;;;;4993225;28;20035;-95
2021/09/26 08:35:32;;;;;;;6.68;3.28;;;17.40;77.30;;;;;;4991097;28;20038;-96
2021/09/26 08:37:58;;;;;;;8.05;3.25;;;17.40;79.60;;;;;;4980369;28;20039;-96
2021/09/26 08:40:24;;;;;;;3.70;2.75;;;17.60;79.80;;;;;;4969427;29;20054;-95
2021/09/26 08:42:54;;;;;;;6.80;3.42;;;17.70;80.70;;;;;;4967718;29;20130;-96
2021/09/26 08:45:21;;;;;;;4.72;3.17;;;18.00;77.90;;;;;;4971713;28;20027;-95
2021/09/26 08:47:51;;;;;;;6.78;3.95;;;18.10;77.30;;;;;;4983573;28;20035;-94
2021/09/26 08:50:23;;;;;;;4.18;2.90;;;18.20;75.80;;;;;;4990369;28;20045;-96
2021/09/26 08:52:53;;;;;;;5.88;3.20;;;18.20;74.80;;;;;;4972887;28;20043;-95
2021/09/26 08:55:19;;;;;;;6.88;3.90;;;18.30;74.60;;;;;;4987549;28;20090;-96
2021/09/26 08:57:47;;;;;;;7.43;4.15;;;18.30;74.50;;;;;;4988473;28;20043;-96
2021/09/26 09:00:20;;;;;;;9.75;4.30;;;18.20;73.20;;;;;;4972722;28;20092;-95
2021/09/26 09:02:46;;;;;;;4.65;3.15;;;18.10;72.10;;;;;;4969691;28;20043;-95
2021/09/26 09:05:35;;;;;;;7.43;3.55;;;17.90;73.10;;;;;;4968429;28;20455;-95
2021/09/26 09:08:04;;;;;;;7.53;3.30;;;17.80;72.70;;;;;;4986988;28;20034;-94
2021/09/26 09:10:50;;;;;;;5.70;3.85;;;17.80;73.90;;;;;;4984909;28;20038;-94
2021/09/26 09:13:32;;;;;;;5.40;3.28;;;17.80;74.00;;;;;;4991001;28;20093;-94
2021/09/26 09:16:01;;;;;;;7.10;3.72;;;17.90;73.60;;;;;;4969551;28;20046;-96
2021/09/26 09:18:53;;;;;;;5.32;3.25;;;18.00;72.90;;;;;;4966622;28;20058;-95
2021/09/26 09:21:34;;;;;;;5.80;3.13;;;18.10;72.30;;;;;;4964249;28;20059;-95
2021/09/26 09:24:28;;;;;;;5.85;3.25;;;18.20;70.40;;;;;;4981003;28;20441;-95
2021/09/26 09:26:55;;;;;;;7.85;3.63;;;18.30;70.60;;;;;;4984516;28;20034;-94
2021/09/26 09:29:26;;;;;;;3.90;3.40;;;18.30;71.10;;;;;;4992453;28;20047;-93
2021/09/26 09:31:56;;;;;;;4.25;3.17;;;18.20;71.70;;;;;;4984337;28;20043;-94
2021/09/26 09:34:35;;;;;;;9.43;4.07;;;18.20;71.90;;;;;;4953137;29;20078;-96
2021/09/26 09:37:22;;;;;;;6.75;3.72;;;18.10;69.90;;;;;;4963883;29;20031;-96
2021/09/26 09:40:29;;;;;;;10.20;3.60;;;18.10;69.30;;;;;;4976993;28;20089;-95
2021/09/26 09:43:01;;;;;;;7.60;3.30;;;18.20;69.50;;;;;;4998292;28;20089;-96
2021/09/26 10:40:11;;;;;;;8.35;3.25;;;18.30;65.60;;;;;;5127984;23;20042;-95
2021/09/26 10:43:29;;;;;;;6.70;3.28;;;18.30;65.00;;;;;;5150155;23;20059;-96
2021/09/26 14:52:13;;;;;;;5.88;3.20;;;23.10;50.10;;;;;;5630969;23;20360;-95
2021/09/26 15:02:51;;;;;;;;;;;;;;;;;;;;;
2021/09/26 15:16:12;;;;;;;;;;;;;;;;;;;;;
2021/09/26 15:18:50;;;;;;;5.25;2.80;;;21.90;52.30;;;;;;4960891;29;20055;-94
2021/09/26 15:21:26;;;;;;;4.57;2.40;;;21.50;52.50;;;;;;5105009;23;20087;-94
2021/09/26 15:24:34;;;;;;;;;;;;;;;;;;;;;
2021/09/26 15:27:17;;;;;;;3.45;2.38;;;20.80;54.00;;;;;;4936957;29;20075;-95
2021/09/26 15:30:27;;;;;;;5.73;2.80;;;20.50;54.60;;;;;;4911106;29;20045;-95
2021/09/26 15:33:27;;;;;;;3.70;2.58;;;20.00;55.30;;;;;;4936692;29;20040;-96
2021/09/26 15:36:03;;;;;;;7.18;2.85;;;19.40;56.50;;;;;;4935560;29;20032;-96
2021/09/26 15:48:20;;;;;;;4.90;2.38;;;18.00;60.60;;;;;;4936100;29;20062;-96
2021/09/26 15:54:09;;;;;;;3.95;2.47;;;17.40;64.30;;;;;;4946359;28;20097;-93
2021/09/26 15:56:34;;;;;;;4.07;2.80;;;17.00;65.20;;;;;;4903720;29;20048;-93
2021/09/26 15:59:02;;;;;;;5.88;3.53;;;16.80;67.00;;;;;;4909686;29;20514;-93
2021/09/26 16:01:29;;;;;;;4.00;2.67;;;16.50;69.30;;;;;;4935502;29;20052;-92
2021/09/26 16:03:57;;;;;;;4.22;2.65;;;16.20;70.00;;;;;;4911781;29;20062;-93
2021/09/26 16:06:25;;;;;;;5.57;2.88;;;16.00;70.60;;;;;;4906942;29;20035;-93
2021/09/26 16:08:51;;;;;;;4.50;2.35;;;15.90;72.00;;;;;;4911889;29;20120;-94
2021/09/26 16:11:19;;;;;;;3.38;2.28;;;15.70;71.90;;;;;;4920638;29;20106;-93
2021/09/26 16:13:50;;;;;;;2.95;2.30;;;15.60;72.60;;;;;;4929165;29;20050;-93
2021/09/26 16:16:16;;;;;;;2.42;2.03;;;15.50;73.40;;;;;;4922326;29;20036;-92
2021/09/26 16:18:42;;;;;;;5.03;2.25;;;15.30;72.70;;;;;;4901473;29;20043;-93
2021/09/26 16:21:16;;;;;;;3.35;2.42;;;15.30;72.60;;;;;;4903666;29;20044;-94
2021/09/26 16:23:45;;;;;;;4.03;2.72;;;15.20;72.70;;;;;;4920876;29;20035;-94
2021/09/26 16:26:12;;;;;;;2.10;1.83;;;15.20;73.10;;;;;;4893207;29;20040;-90
2021/09/26 16:28:39;;;;;;;3.33;2.22;;;15.10;73.00;;;;;;4882377;29;20395;-92
2021/09/26 16:31:06;;;;;;;4.57;1.63;;;15.00;73.20;;;;;;4898609;29;20055;-91
2021/09/26 16:33:43;;;;;;;2.58;2.20;;;15.00;73.80;;;;;;4885897;29;20041;-92
2021/09/26 16:36:10;;;;;;;2.05;1.80;;;14.90;74.40;;;;;;4885289;29;20153;-92
2021/09/26 16:38:37;;;;;;;3.92;2.47;;;14.90;74.00;;;;;;4886731;29;20040;-92
2021/09/26 16:41:03;;;;;;;6.80;2.30;;;14.80;74.10;;;;;;4885769;29;20172;-93
2021/09/26 16:43:29;;;;;;;2.40;2.17;;;14.80;74.70;;;;;;4885701;29;20080;-92
2021/09/26 16:45:55;;;;;;;3.42;1.92;;;14.70;74.40;;;;;;4885489;29;20064;-92
2021/09/26 16:48:21;;;;;;;3.78;2.30;;;14.70;74.70;;;;;;4886126;29;20047;-92
2021/09/26 16:50:53;;;;;;;3.03;2.00;;;14.70;75.20;;;;;;4901655;29;20137;-92
2021/09/26 16:53:19;;;;;;;6.95;2.05;;;14.60;75.50;;;;;;4886055;29;20085;-93
2021/09/26 16:55:45;;;;;;;5.13;1.90;;;14.60;75.00;;;;;;4885995;29;20053;-92
2021/09/26 16:58:12;;;;;;;2.03;1.90;;;14.60;75.20;;;;;;4886075;29;20053;-92
2021/09/26 17:00:39;;;;;;;2.95;1.77;;;14.60;75.60;;;;;;4885854;29;20059;-92
2021/09/26 17:03:05;;;;;;;2.45;1.80;;;14.60;75.20;;;;;;4902565;29;20042;-92
2021/09/26 17:05:32;;;;;;;2.15;1.60;;;14.50;75.40;;;;;;4901796;29;20396;-92
2021/09/26 17:07:59;;;;;;;2.50;1.70;;;14.50;75.50;;;;;;4886105;29;20071;-92
2021/09/26 17:10:27;;;;;;;3.50;1.83;;;14.50;75.90;;;;;;4885680;29;20412;-92
2021/09/26 17:12:53;;;;;;;4.75;2.50;;;14.50;76.10;;;;;;4885717;29;20041;-92
2021/09/26 17:15:22;;;;;;;3.58;1.83;;;14.50;76.10;;;;;;4885421;29;20060;-92
2021/09/26 17:17:48;;;;;;;4.40;2.03;;;14.50;76.50;;;;;;4886247;29;20041;-92
2021/09/26 17:20:21;;;;;;;2.80;1.83;;;14.40;76.40;;;;;;4902355;29;20387;-92
2021/09/26 17:22:48;;;;;;;4.13;1.95;;;14.50;76.50;;;;;;4886040;29;20116;-93
2021/09/26 17:25:16;;;;;;;4.47;2.38;;;14.40;76.30;;;;;;4886249;29;20060;-92
2021/09/26 17:27:42;;;;;;;2.75;2.05;;;14.40;76.50;;;;;;4885863;29;20033;-92
2021/09/26 17:30:12;;;;;;;3.47;1.83;;;14.40;77.60;;;;;;4885116;29;20040;-92
2021/09/26 17:32:40;;;;;;;4.88;1.90;;;14.30;76.60;;;;;;4885965;29;20524;-92
2021/09/26 17:35:08;;;;;;;2.00;1.50;;;14.30;76.70;;;;;;4901586;29;20041;-93
2021/09/26 17:37:34;;;;;;;2.03;1.70;;;14.20;76.80;;;;;;4885576;29;20498;-92
2021/09/26 17:40:01;;;;;;;5.38;2.03;;;14.20;77.10;;;;;;4886651;29;20069;-92
2021/09/26 17:42:27;;;;;;;2.50;1.77;;;14.10;77.20;;;;;;4885031;29;20037;-92
2021/09/26 17:44:53;;;;;;;3.47;1.67;;;14.00;78.10;;;;;;4884770;29;20057;-92
2021/09/26 17:47:20;;;;;;;2.35;1.73;;;13.90;78.00;;;;;;4885205;29;20488;-92
2021/09/26 17:49:46;;;;;;;3.60;1.75;;;13.90;78.20;;;;;;4900768;29;20484;-92
2021/09/26 17:52:13;;;;;;;2.83;1.92;;;13.80;79.10;;;;;;4901672;29;20037;-92
2021/09/26 17:54:40;;;;;;;2.78;1.92;;;13.70;79.20;;;;;;4884791;29;20047;-92
2021/09/26 17:57:05;;;;;;;5.65;2.13;;;13.70;79.00;;;;;;4884758;29;20135;-92
2021/09/26 17:59:31;;;;;;;2.60;1.50;;;13.60;79.60;;;;;;4884897;29;20068;-92
2021/09/26 18:01:57;;;;;;;3.70;1.58;;;13.50;79.60;;;;;;4885540;29;20036;-91
2021/09/26 18:04:23;;;;;;;1.70;1.60;;;13.50;80.40;;;;;;4884972;29;20043;-92
2021/09/26 18:06:49;;;;;;;1.60;1.50;;;13.40;80.50;;;;;;4884740;29;20037;-91
2021/09/26 18:09:15;;;;;;;3.67;2.00;;;13.40;80.60;;;;;;4901286;29;20041;-92
2021/09/26 18:11:41;;;;;;;3.22;1.60;;;13.40;80.70;;;;;;4900252;29;20121;-92
2021/09/26 18:14:06;;;;;;;5.03;2.05;;;13.30;80.90;;;;;;4884543;29;20085;-92
2021/09/26 18:16:33;;;;;;;2.75;1.80;;;13.30;81.70;;;;;;4884541;29;20048;-92
2021/09/26 18:19:02;;;;;;;3.80;2.15;;;13.30;81.80;;;;;;4884815;29;20040;-92
2021/09/26 18:21:34;;;;;;;3.33;2.00;;;13.20;82.20;;;;;;4901145;29;20127;-92
2021/09/26 18:24:02;;;;;;;2.20;1.80;;;13.30;82.40;;;;;;4885142;29;20071;-92
2021/09/26 18:26:28;;;;;;;2.67;1.65;;;13.20;82.20;;;;;;4884523;29;20123;-92
2021/09/26 18:28:56;;;;;;;2.65;1.75;;;13.20;83.00;;;;;;4884665;29;20043;-92
2021/09/26 18:31:23;;;;;;;2.38;1.55;;;13.20;83.30;;;;;;4900774;29;20040;-92
2021/09/26 18:33:49;;;;;;;2.58;1.30;;;13.10;82.90;;;;;;4884583;29;20037;-91
2021/09/26 18:36:19;;;;;;;2.10;1.40;;;13.10;82.80;;;;;;4886679;29;20051;-92
2021/09/26 18:38:47;;;;;;;1.42;1.25;;;13.10;83.10;;;;;;4887071;29;20036;-91
2021/09/26 18:41:21;;;;;;;1.55;1.27;;;13.00;83.40;;;;;;4887432;29;20051;-90
2021/09/26 18:43:47;;;;;;;;;;;13.00;83.30;;;;;;4886702;29;20570;-92
2021/09/26 18:46:15;;;;;;;6.80;1.60;;;13.00;87.60;;;;;;4900936;29;20350;-91
2021/09/26 18:48:41;;;;;;;5.55;1.63;;;12.90;84.00;;;;;;4884069;29;20047;-91
2021/09/26 18:51:10;;;;;;;3.28;1.88;;;12.90;84.60;;;;;;4884232;29;20136;-91
2021/09/26 18:53:37;;;;;;;3.08;1.90;;;12.90;85.10;;;;;;4883316;29;20516;-92
2021/09/26 18:56:04;;;;;;;2.22;1.50;;;12.80;85.10;;;;;;4900374;29;20488;-91
2021/09/26 18:58:30;;;;;;;2.40;1.70;;;12.80;85.10;;;;;;4883906;29;20036;-92
2021/09/26 19:00:57;;;;;;;3.70;1.50;;;12.80;85.20;;;;;;4900729;29;20392;-92
2021/09/26 19:03:23;;;;;;;1.77;1.10;;;12.80;86.00;;;;;;4900643;29;20039;-92
2021/09/26 19:05:51;;;;;;;4.75;2.17;;;12.80;85.90;;;;;;4883971;29;20032;-92
2021/09/26 19:08:17;;;;;;;2.65;1.88;;;12.80;86.20;;;;;;4900717;29;20036;-92
2021/09/26 19:10:43;;;;;;;2.83;2.30;;;12.80;86.60;;;;;;4883677;29;20101;-91
2021/09/26 19:13:17;;;;;;;3.22;2.35;;;12.80;87.60;;;;;;4899937;29;20048;-91
2021/09/26 19:15:44;;;;;;;;;;;12.80;88.30;;;;;;4883939;29;20037;-91